Como, Indiana
Current Conditions -  °F | °C
As of 11:53 AM on Thursday 18 Dec 2014 (Local Time) from KMIE Reporting Station
Overcast Overcast  
Wind Chill: 18°   Ceiling: 1900
Heat Index: 26°   Visibility: 10mi
Dew Point: 19°   Wind: 8mph
Humidity: 75%   Direction: 270°W
Pressure: 30.28"   Gusts: NA
Location:  40.4312°N, 85.0058°W
Report Text: KMIE 181653Z 27007KT 10SM OVC019 M03/M07 A3028 RMK AO2 SLP261 T10331072
Loading
Personal Weather Stations






























Interactive Weather Map New forecast layout! Learn more

10-Day Weather Forecast

Advertisements
Track Severe Weather on mobile